Time;durP1;ratioP1;P1;durP2;ratioP2;P2;SDS_P1;SDS_P2;PMS_P1;PMS_P2;Temp;Humidity;BMP_temperature;BMP_pressure;BME280_temperature;BME280_humidity;BME280_pressure;Samples;Min_cycle;Max_cycle;Signal;HPM_P1;HPM_P2
2023/04/03 00:01:15;;;;;;;0.40;0.30;;;;;;;11.56;66.09;94677.00;5132882;27;20435;-55
2023/04/03 00:03:43;;;;;;;0.30;0.20;;;;;;;11.72;69.75;94673.03;5132511;27;20922;-55
2023/04/03 00:06:12;;;;;;;0.40;0.30;;;;;;;11.86;67.02;94671.22;5132529;27;20496;-56
2023/04/03 00:08:41;;;;;;;0.30;0.20;;;;;;;11.94;67.32;94672.41;5132348;27;20789;-55
2023/04/03 00:11:11;;;;;;;0.30;0.20;;;;;;;11.93;63.40;94670.84;5132288;27;20447;-56
2023/04/03 00:13:40;;;;;;;0.30;0.20;;;;;;;11.88;61.25;94668.28;5132234;27;20443;-56
2023/04/03 00:16:09;;;;;;;0.40;0.30;;;;;;;11.42;63.36;94679.63;5132676;27;20449;-55
2023/04/03 00:18:39;;;;;;;0.30;0.20;;;;;;;10.85;62.64;94667.44;5131731;27;20434;-56
2023/04/03 00:21:09;;;;;;;0.40;0.30;;;;;;;10.29;65.07;94671.09;5132484;27;20789;-56
2023/04/03 00:23:37;;;;;;;0.30;0.20;;;;;;;10.01;65.71;94673.50;5131716;27;20916;-56
2023/04/03 00:26:05;;;;;;;0.30;0.20;;;;;;;9.95;66.98;94676.47;5132709;27;20438;-56
2023/04/03 00:28:35;;;;;;;0.30;0.20;;;;;;;9.52;68.25;94683.47;5132364;27;20474;-56
2023/04/03 00:31:04;;;;;;;0.50;0.40;;;;;;;8.92;71.10;94685.50;5132357;27;20441;-56
2023/04/03 00:33:33;;;;;;;0.40;0.30;;;;;;;8.69;73.21;94688.00;5132431;27;20449;-56
2023/04/03 00:36:06;;;;;;;0.67;0.67;;;;;;;8.78;73.88;94667.88;5132375;27;20508;-56
2023/04/03 00:38:35;;;;;;;0.30;0.20;;;;;;;9.78;70.25;94678.75;5132784;27;20434;-56
2023/04/03 00:41:03;;;;;;;0.30;0.20;;;;;;;10.24;70.29;94673.81;5132343;27;20943;-55
2023/04/03 00:43:32;;;;;;;0.37;0.30;;;;;;;10.57;69.97;94667.59;5131802;27;20435;-55
2023/04/03 00:46:02;;;;;;;0.30;0.20;;;;;;;10.49;70.72;94641.72;5131575;27;20470;-55
2023/04/03 00:48:33;;;;;;;0.30;0.20;;;;;;;10.78;70.00;94674.97;5131708;27;20539;-56
2023/04/03 00:51:03;;;;;;;1.03;0.37;;;;;;;10.96;71.68;94672.59;5132412;28;20427;-56
2023/04/03 00:53:34;;;;;;;0.30;0.30;;;;;;;11.07;71.35;94674.84;5132541;28;20847;-56
2023/04/03 00:56:06;;;;;;;0.30;0.20;;;;;;;10.56;68.50;94603.19;5131635;28;20434;-56
2023/04/03 00:58:38;;;;;;;2.47;0.30;;;;;;;11.09;69.52;94664.72;5131601;27;20443;-56
2023/04/03 01:01:12;;;;;;;0.30;0.20;;;;;;;11.21;71.52;94670.38;5133538;27;20435;-56
2023/04/03 01:03:41;;;;;;;0.30;0.20;;;;;;;11.28;69.82;94665.50;5135840;27;20434;-56
2023/04/03 01:06:10;;;;;;;0.30;0.20;;;;;;;11.20;68.29;94668.03;5135765;27;20832;-56
2023/04/03 01:08:39;;;;;;;0.67;0.40;;;;;;;10.92;65.34;94672.41;5135333;27;20470;-55
2023/04/03 01:11:07;;;;;;;0.30;0.20;;;;;;;10.14;66.96;94683.44;5136768;27;20917;-55
2023/04/03 01:13:35;;;;;;;0.37;0.23;;;;;;;10.56;65.75;94679.25;5136539;27;20523;-56
2023/04/03 01:16:05;;;;;;;0.37;0.23;;;;;;;10.69;65.33;94678.56;5135962;27;20518;-56
2023/04/03 01:18:38;;;;;;;0.30;0.20;;;;;;;10.22;66.76;94657.41;5135915;27;20443;-56
2023/04/03 01:21:57;;;;;;;1.57;1.47;;;;;;;9.61;69.64;94687.13;5135854;27;20931;-56
2023/04/03 01:24:43;;;;;;;0.43;0.40;;;;;;;10.03;71.13;94684.59;5087505;27;20475;-56
2023/04/03 01:27:12;;;;;;;1.23;0.60;;;;;;;10.53;70.09;94682.44;5136091;27;20435;-56
2023/04/03 01:29:43;;;;;;;0.40;0.23;;;;;;;10.83;73.42;94669.59;5135175;27;21008;-56
2023/04/03 01:32:13;;;;;;;0.30;0.20;;;;;;;10.82;68.36;94669.91;5135877;27;20489;-56
2023/04/03 01:34:41;;;;;;;1.13;0.60;;;;;;;10.88;67.31;94667.97;5135531;27;20930;-56
2023/04/03 01:37:09;;;;;;;2.50;0.30;;;;;;;10.77;66.28;94669.97;5135266;27;20445;-56
2023/04/03 01:39:38;;;;;;;0.30;0.20;;;;;;;10.89;65.98;94672.97;5135603;27;20491;-56
2023/04/03 01:42:06;;;;;;;0.40;0.40;;;;;;;9.93;69.26;94682.03;5136017;27;20521;-56
2023/04/03 01:44:34;;;;;;;0.33;0.27;;;;;;;10.27;67.37;94670.59;5134948;27;21029;-56
2023/04/03 01:47:06;;;;;;;0.30;0.20;;;;;;;10.03;68.44;94679.28;5135723;27;20534;-56
2023/04/03 01:49:35;;;;;;;0.30;0.20;;;;;;;9.39;70.25;94676.97;5135557;27;20478;-56
2023/04/03 01:52:12;;;;;;;0.40;0.30;;;;;;;9.44;69.07;94629.31;5125161;27;20443;-57
2023/04/03 01:54:48;;;;;;;0.30;0.20;;;;;;;10.00;68.24;94677.19;5109580;27;20820;-57
2023/04/03 01:57:16;;;;;;;0.30;0.20;;;;;;;9.63;68.90;94681.53;5134492;27;20441;-57
2023/04/03 01:59:45;;;;;;;0.30;0.20;;;;;;;9.96;68.72;94675.41;5135591;27;20485;-57
2023/04/03 02:02:14;;;;;;;0.40;0.30;;;;;;;10.11;68.22;94683.97;5134804;27;20482;-57
2023/04/03 02:04:44;;;;;;;0.30;0.20;;;;;;;10.34;67.07;94671.03;5135294;27;20451;-57
2023/04/03 02:07:12;;;;;;;0.40;0.30;;;;;;;10.49;65.89;94673.50;5135184;27;20442;-57
2023/04/03 02:09:41;;;;;;;0.30;0.20;;;;;;;9.94;67.19;94604.19;5134922;27;20740;-57
2023/04/03 02:12:09;;;;;;;0.30;0.20;;;;;;;10.47;66.96;94665.84;5133463;27;20435;-57
2023/04/03 02:14:38;;;;;;;0.50;0.50;;;;;;;10.51;66.77;94666.06;5134628;27;20547;-57
2023/04/03 02:17:08;;;;;;;0.30;0.30;;;;;;;10.49;68.30;94655.75;5134782;27;20446;-57
2023/04/03 02:19:37;;;;;;;0.30;0.20;;;;;;;10.47;70.15;94662.41;5135442;27;20443;-57
2023/04/03 02:22:06;;;;;;;0.40;0.30;;;;;;;10.00;72.98;94644.63;5133007;27;20466;-57
2023/04/03 02:24:35;;;;;;;0.30;0.20;;;;;;;10.01;71.56;94640.94;5134870;27;20576;-57
2023/04/03 02:27:03;;;;;;;0.30;0.20;;;;;;;10.03;70.35;94636.94;5134332;27;20530;-57
2023/04/03 02:29:31;;;;;;;0.30;0.20;;;;;;;9.83;71.65;94639.81;5134727;27;20484;-57
2023/04/03 02:32:00;;;;;;;0.97;0.33;;;;;;;9.43;73.03;94629.59;5134402;27;20545;-57
2023/04/03 02:34:28;;;;;;;0.30;0.20;;;;;;;9.15;75.51;94614.50;5134229;27;20439;-57
2023/04/03 02:36:57;;;;;;;0.40;0.30;;;;;;;9.01;77.77;94627.56;5134313;27;20438;-57
2023/04/03 02:39:27;;;;;;;0.30;0.30;;;;;;;9.37;79.49;94630.72;5134721;27;20435;-57
2023/04/03 02:41:55;;;;;;;0.30;0.20;;;;;;;9.50;74.00;94614.19;5134429;27;20434;-57
2023/04/03 02:44:24;;;;;;;0.40;0.30;;;;;;;9.90;73.67;94613.78;5133711;27;20900;-57
2023/04/03 02:46:52;;;;;;;0.40;0.20;;;;;;;9.63;73.43;94544.75;5134407;27;20511;-57
2023/04/03 02:49:20;;;;;;;0.30;0.20;;;;;;;10.27;71.07;94617.63;5134015;27;20473;-57
2023/04/03 02:51:49;;;;;;;0.40;0.30;;;;;;;10.22;71.35;94610.50;5133692;27;20482;-57
2023/04/03 02:54:17;;;;;;;0.30;0.20;;;;;;;10.23;69.55;94612.09;5134226;27;20473;-57
2023/04/03 02:56:47;;;;;;;0.30;0.20;;;;;;;10.34;69.99;94608.28;5134023;27;20534;-57
2023/04/03 02:59:15;;;;;;;0.43;0.43;;;;;;;9.87;69.45;94621.47;5134151;27;20431;-57
2023/04/03 03:01:44;;;;;;;0.30;0.20;;;;;;;9.74;70.99;94627.47;5133294;27;20434;-57
2023/04/03 03:04:13;;;;;;;0.30;0.20;;;;;;;9.18;71.83;94582.25;5133639;27;20438;-57
2023/04/03 03:06:42;;;;;;;0.30;0.20;;;;;;;9.73;70.72;94624.03;5133797;27;20478;-57
2023/04/03 03:09:12;;;;;;;0.30;0.20;;;;;;;9.38;69.40;94502.72;5121305;27;20450;-57
2023/04/03 03:11:41;;;;;;;1.37;0.70;;;;;;;10.19;69.96;94595.97;5133820;27;20515;-57
2023/04/03 03:14:10;;;;;;;0.30;0.20;;;;;;;9.78;69.95;94597.50;5134049;27;20426;-57
2023/04/03 03:16:39;;;;;;;0.30;0.20;;;;;;;9.78;69.80;94615.25;5133464;27;20446;-57
2023/04/03 03:19:07;;;;;;;0.40;0.40;;;;;;;8.57;73.74;94630.25;5134068;27;20481;-57
2023/04/03 03:21:36;;;;;;;0.60;0.60;;;;;;;7.83;79.63;94637.38;5132815;27;20437;-57
2023/04/03 03:24:04;;;;;;;0.40;0.33;;;;;;;7.88;82.38;94635.50;5131087;27;20471;-57
2023/04/03 03:26:33;;;;;;;0.30;0.30;;;;;;;8.73;77.35;94629.06;5132996;27;20469;-57
2023/04/03 03:29:01;;;;;;;0.43;0.40;;;;;;;9.12;74.38;94625.63;5133604;27;20442;-57
2023/04/03 03:31:31;;;;;;;0.60;0.57;;;;;;;8.17;77.64;94638.31;5133720;27;20485;-57
2023/04/03 03:33:59;;;;;;;0.60;0.40;;;;;;;8.18;79.22;94618.78;5133378;27;20798;-57
2023/04/03 03:36:27;;;;;;;0.50;0.50;;;;;;;8.94;75.98;94632.38;5133558;27;20437;-57
2023/04/03 03:38:56;;;;;;;0.40;0.40;;;;;;;8.91;74.63;94646.13;5133058;27;20506;-57
2023/04/03 03:41:24;;;;;;;0.70;0.30;;;;;;;8.77;75.13;94643.31;5132750;27;20478;-57
2023/04/03 03:43:52;;;;;;;0.40;0.40;;;;;;;8.80;74.37;94648.03;5133405;27;20434;-57
2023/04/03 03:46:21;;;;;;;1.63;0.27;;;;;;;8.80;75.61;94649.91;5132522;27;20934;-57
2023/04/03 03:48:50;;;;;;;0.47;0.30;;;;;;;7.55;74.44;94449.72;5132886;27;20438;-57
2023/04/03 03:51:19;;;;;;;0.30;0.20;;;;;;;8.20;77.43;94664.16;5133144;27;20534;-57
2023/04/03 03:53:47;;;;;;;0.40;0.30;;;;;;;8.25;80.33;94587.59;5132988;27;20433;-57
2023/04/03 03:56:15;;;;;;;1.33;1.23;;;;;;;9.20;83.98;94641.69;5133072;27;20979;-57
2023/04/03 03:58:44;;;;;;;0.30;0.20;;;;;;;9.46;77.39;94642.28;5132904;27;20481;-57
2023/04/03 04:01:12;;;;;;;0.50;0.30;;;;;;;9.26;74.09;94613.38;5133356;27;20842;-57
2023/04/03 04:03:41;;;;;;;0.30;0.30;;;;;;;9.14;73.99;94655.22;5131543;27;20436;-56
2023/04/03 04:06:10;;;;;;;0.30;0.30;;;;;;;9.23;75.24;94653.56;5121286;27;20443;-56
2023/04/03 04:08:39;;;;;;;1.27;0.93;;;;;;;9.21;76.29;94663.66;5132258;27;20953;-56
2023/04/03 04:11:07;;;;;;;0.40;0.30;;;;;;;9.38;78.10;94605.84;5132319;27;20489;-56
2023/04/03 04:13:36;;;;;;;0.40;0.30;;;;;;;9.76;81.91;94638.56;5132755;27;20478;-57
2023/04/03 04:16:05;;;;;;;1.23;1.23;;;;;;;8.73;76.51;94647.56;5132091;27;20553;-56
2023/04/03 04:18:34;;;;;;;0.70;0.70;;;;;;;9.19;76.68;94636.66;5131507;27;20435;-57
2023/04/03 04:21:02;;;;;;;0.50;0.30;;;;;;;9.37;74.50;94651.88;5131981;27;20541;-56
2023/04/03 04:23:32;;;;;;;0.70;0.70;;;;;;;8.80;74.89;94650.69;5131587;27;21025;-56
2023/04/03 04:26:00;;;;;;;1.07;1.03;;;;;;;9.03;75.33;94645.78;5132550;27;20473;-56
2023/04/03 04:28:29;;;;;;;3.43;1.00;;;;;;;9.14;82.66;94599.69;5132500;27;20436;-57
2023/04/03 04:30:57;;;;;;;1.37;1.37;;;;;;;9.77;87.08;94651.50;5132233;27;20473;-57
2023/04/03 04:33:26;;;;;;;0.50;0.50;;;;;;;9.83;80.30;94646.94;5131766;27;20472;-57
2023/04/03 04:35:54;;;;;;;1.60;1.50;;;;;;;9.89;79.42;94653.78;5131197;27;20445;-58
2023/04/03 04:38:22;;;;;;;0.40;0.30;;;;;;;9.62;75.58;94659.56;5132414;27;20474;-57
2023/04/03 04:40:52;;;;;;;0.40;0.30;;;;;;;9.63;74.06;94655.06;5132645;27;20923;-57
2023/04/03 04:43:20;;;;;;;0.63;0.63;;;;;;;9.87;73.11;94643.44;5123822;27;20936;-57
2023/04/03 04:45:49;;;;;;;0.97;0.60;;;;;;;10.28;75.22;94661.56;5126093;27;20444;-57
2023/04/03 04:48:17;;;;;;;0.50;0.50;;;;;;;10.20;72.39;94663.78;5131577;27;20449;-57
2023/04/03 04:50:45;;;;;;;0.37;0.27;;;;;;;10.29;71.18;94657.84;5131171;27;20466;-57
2023/04/03 04:53:14;;;;;;;0.40;0.40;;;;;;;10.06;72.31;94644.31;5131489;27;20482;-57
2023/04/03 04:55:42;;;;;;;1.90;1.80;;;;;;;10.25;71.54;94651.53;5131134;27;20444;-57
2023/04/03 04:58:12;;;;;;;1.97;1.87;;;;;;;9.52;72.26;94617.34;5132080;28;20435;-56
2023/04/03 05:00:40;;;;;;;0.40;0.40;;;;;;;9.49;74.05;94660.22;5131790;27;20521;-57
2023/04/03 05:03:09;;;;;;;0.67;0.63;;;;;;;9.75;74.02;94658.13;5121410;28;20515;-57
2023/04/03 05:05:37;;;;;;;1.70;0.60;;;;;;;9.58;74.34;94669.16;5130227;28;20442;-57
2023/04/03 05:08:08;;;;;;;0.90;0.90;;;;;;;9.38;76.21;94659.53;5132335;28;20443;-57
2023/04/03 05:10:36;;;;;;;4.23;4.00;;;;;;;9.68;75.14;94668.25;5130376;27;20834;-57
2023/04/03 05:13:04;;;;;;;2.00;1.20;;;;;;;10.06;73.03;94676.09;5132129;28;20439;-57
2023/04/03 05:15:34;;;;;;;1.50;1.47;;;;;;;9.55;73.07;94667.84;5131918;27;20440;-57
2023/04/03 05:18:02;;;;;;;1.67;1.57;;;;;;;9.96;73.89;94668.25;5132244;27;20514;-56
2023/04/03 05:20:31;;;;;;;1.43;1.33;;;;;;;9.86;71.63;94665.72;5131334;28;20446;-57
2023/04/03 05:22:59;;;;;;;0.80;0.80;;;;;;;9.57;71.54;94667.56;5131772;28;20450;-57
2023/04/03 05:25:28;;;;;;;0.70;0.70;;;;;;;9.94;71.05;94666.97;5105290;28;20442;-57
2023/04/03 05:27:56;;;;;;;0.50;0.40;;;;;;;9.66;73.37;94670.41;5131855;27;20439;-56
2023/04/03 05:30:25;;;;;;;0.47;0.47;;;;;;;9.55;74.21;94675.00;5131852;27;20497;-57
2023/04/03 05:32:55;;;;;;;1.40;1.40;;;;;;;9.54;74.45;94662.81;5131522;28;20879;-58
2023/04/03 05:35:23;;;;;;;0.40;0.30;;;;;;;9.69;74.06;94660.03;5131951;28;20487;-57
2023/04/03 05:37:52;;;;;;;6.00;2.73;;;;;;;9.12;77.38;94673.22;5131397;28;21087;-57
2023/04/03 05:40:20;;;;;;;1.90;1.80;;;;;;;8.83;77.47;94658.06;5131351;28;20492;-57
2023/04/03 05:42:49;;;;;;;5.20;0.97;;;;;;;8.63;78.01;94650.25;5131500;28;20446;-57
2023/04/03 05:45:17;;;;;;;1.50;0.93;;;;;;;8.95;78.11;94666.44;5132173;28;20545;-57
2023/04/03 05:47:47;;;;;;;0.40;0.40;;;;;;;9.56;75.08;94660.72;5134468;27;20470;-57
2023/04/03 05:50:17;;;;;;;0.97;0.40;;;;;;;9.25;76.15;94668.09;5135710;27;20474;-57
2023/04/03 05:52:48;;;;;;;1.17;1.17;;;;;;;8.77;77.61;94667.09;5135187;27;20572;-58
2023/04/03 05:55:17;;;;;;;0.63;0.63;;;;;;;9.21;76.31;94680.28;5134760;27;20438;-58
2023/04/03 05:57:45;;;;;;;0.97;0.67;;;;;;;9.43;74.84;94687.78;5135407;27;20431;-56
2023/04/03 06:00:16;;;;;;;0.57;0.47;;;;;;;9.38;75.14;94688.63;5134497;27;20438;-56
2023/04/03 06:02:45;;;;;;;0.67;0.67;;;;;;;9.32;73.82;94681.78;5134830;27;20891;-58
2023/04/03 06:05:14;;;;;;;0.70;0.67;;;;;;;9.61;74.10;94673.88;5134941;27;20442;-58
2023/04/03 06:07:45;;;;;;;0.40;0.30;;;;;;;10.06;71.94;94685.88;5135074;27;20434;-57
2023/04/03 06:10:14;;;;;;;0.50;0.50;;;;;;;10.03;71.45;94684.59;5134777;27;21008;-57
2023/04/03 06:12:42;;;;;;;0.73;0.73;;;;;;;10.59;69.59;94687.44;5134871;27;20478;-58
2023/04/03 06:15:11;;;;;;;0.50;0.40;;;;;;;10.89;68.22;94693.38;5135195;27;20474;-57
2023/04/03 06:17:39;;;;;;;0.50;0.50;;;;;;;10.56;66.94;94648.25;5134912;27;20794;-57
2023/04/03 06:20:09;;;;;;;0.40;0.30;;;;;;;10.47;67.71;94630.63;5134479;27;20889;-56
2023/04/03 06:22:37;;;;;;;1.40;0.83;;;;;;;10.03;68.74;94586.63;5134709;27;20435;-57
2023/04/03 06:25:09;;;;;;;1.33;1.33;;;;;;;10.97;69.40;94684.81;5134549;27;20478;-56
2023/04/03 06:27:37;;;;;;;0.80;0.80;;;;;;;10.75;69.63;94702.03;5134749;27;20470;-56
2023/04/03 06:30:07;;;;;;;1.53;1.53;;;;;;;10.50;70.05;94667.16;5134302;27;20986;-56
2023/04/03 06:32:35;;;;;;;0.40;0.40;;;;;;;10.36;72.13;94669.69;5134157;27;20474;-56
2023/04/03 06:35:04;;;;;;;1.43;1.33;;;;;;;10.54;71.47;94681.41;5133887;27;20435;-56
2023/04/03 06:37:33;;;;;;;1.40;1.30;;;;;;;10.97;70.12;94675.00;5133856;27;20439;-56
2023/04/03 06:40:02;;;;;;;0.60;0.60;;;;;;;10.72;70.50;94672.69;5133798;27;20427;-56
2023/04/03 06:42:32;;;;;;;0.60;0.50;;;;;;;11.25;69.25;94674.06;5133504;27;20447;-56
2023/04/03 06:45:01;;;;;;;0.97;0.93;;;;;;;11.10;69.35;94668.97;5107773;27;21029;-56
2023/04/03 06:47:29;;;;;;;0.90;0.87;;;;;;;10.82;71.38;94675.22;5133868;27;20487;-56
2023/04/03 06:49:58;;;;;;;11.80;1.60;;;;;;;10.52;71.70;94679.03;5134167;27;20484;-57
2023/04/03 06:52:27;;;;;;;0.90;0.73;;;;;;;10.91;74.74;94678.78;5133359;27;20518;-56
2023/04/03 06:54:57;;;;;;;2.30;2.20;;;;;;;10.73;71.96;94682.19;5134069;27;20439;-56
2023/04/03 06:57:26;;;;;;;0.50;0.40;;;;;;;10.86;71.27;94649.69;5134083;27;20430;-56
2023/04/03 06:59:56;;;;;;;1.13;1.13;;;;;;;10.78;71.81;94658.28;5133011;27;20477;-57
2023/04/03 07:02:24;;;;;;;13.40;0.80;;;;;;;11.19;70.34;94653.19;5133421;27;20438;-57
2023/04/03 07:04:53;;;;;;;0.60;0.60;;;;;;;11.29;70.68;94648.50;5134350;27;20443;-57
2023/04/03 07:07:21;;;;;;;0.60;0.60;;;;;;;11.36;70.73;94651.56;5133804;27;20435;-57
2023/04/03 07:09:50;;;;;;;1.97;1.20;;;;;;;11.01;69.96;94596.44;5133790;27;20522;-57
2023/04/03 07:12:18;;;;;;;0.73;0.70;;;;;;;11.22;69.87;94652.63;5129086;27;20493;-57
2023/04/03 07:14:46;;;;;;;1.83;1.00;;;;;;;11.57;68.29;94645.94;5113488;28;20443;-58
2023/04/03 07:17:16;;;;;;;2.77;2.03;;;;;;;11.56;68.35;94633.78;5132472;27;20525;-57
2023/04/03 07:19:44;;;;;;;1.53;0.90;;;;;;;11.69;68.16;94625.84;5133940;27;20463;-57
2023/04/03 07:22:13;;;;;;;0.97;0.83;;;;;;;12.03;66.61;94628.16;5106460;27;20470;-58
2023/04/03 07:24:41;;;;;;;1.90;0.37;;;;;;;12.20;65.43;94627.56;5133614;27;20471;-58
2023/04/03 07:27:12;;;;;;;1.60;0.50;;;;;;;12.34;64.10;94628.34;5133680;27;20434;-58
2023/04/03 07:29:40;;;;;;;0.97;0.97;;;;;;;11.84;67.30;94632.78;5133571;27;20912;-58
2023/04/03 07:32:09;;;;;;;4.80;3.67;;;;;;;11.34;68.99;94616.59;5133311;27;20853;-58
2023/04/03 07:34:39;;;;;;;3.60;2.63;;;;;;;11.16;68.93;94614.75;5132763;27;20467;-57
2023/04/03 07:37:08;;;;;;;4.20;4.00;;;;;;;10.42;69.54;94504.34;5133475;27;20487;-58
2023/04/03 07:39:37;;;;;;;8.43;4.10;;;;;;;10.94;70.57;94622.53;5126203;27;20531;-58
2023/04/03 07:42:06;;;;;;;7.50;1.90;;;;;;;10.91;69.40;94569.28;5133286;27;20435;-58
2023/04/03 07:44:35;;;;;;;2.57;2.00;;;;;;;11.20;68.97;94621.09;5133468;27;20520;-58
2023/04/03 07:47:03;;;;;;;2.17;2.03;;;;;;;11.23;69.37;94617.06;5133243;27;20484;-58
2023/04/03 07:49:32;;;;;;;0.80;0.80;;;;;;;10.85;71.69;94613.66;5132172;27;20517;-57
2023/04/03 07:52:03;;;;;;;0.87;0.87;;;;;;;10.07;75.91;94603.53;5132868;27;20463;-57
2023/04/03 07:54:31;;;;;;;0.70;0.70;;;;;;;10.12;78.28;94621.22;5132316;27;20943;-57
2023/04/03 07:57:00;;;;;;;1.13;1.13;;;;;;;10.20;77.72;94618.75;5132901;27;20908;-57
2023/04/03 07:59:29;;;;;;;3.40;2.63;;;;;;;10.03;78.29;94617.59;5132063;27;20443;-57
2023/04/03 08:01:57;;;;;;;5.60;5.10;;;;;;;9.77;79.75;94624.25;5132855;27;20557;-57
2023/04/03 08:04:26;;;;;;;4.73;4.33;;;;;;;9.83;80.28;94621.28;5132344;27;20446;-57
2023/04/03 08:06:55;;;;;;;1.83;1.73;;;;;;;10.16;80.10;94620.41;5132907;27;20530;-57
2023/04/03 08:09:24;;;;;;;6.40;1.30;;;;;;;10.22;79.98;94620.34;5132783;27;21002;-56
2023/04/03 08:11:53;;;;;;;0.40;0.33;;;;;;;10.88;75.33;94621.03;5132276;27;20466;-57
2023/04/03 08:14:22;;;;;;;3.37;1.53;;;;;;;10.65;75.19;94604.13;5132630;27;20986;-57
2023/04/03 08:16:51;;;;;;;0.43;0.40;;;;;;;10.03;75.36;94511.72;5132275;27;20526;-57
2023/04/03 08:19:19;;;;;;;1.03;0.80;;;;;;;10.61;74.13;94607.63;5132533;27;20435;-57
2023/04/03 08:21:54;;;;;;;0.70;0.50;;;;;;;10.92;75.16;94600.84;5132152;27;20430;-58
2023/04/03 08:24:24;;;;;;;1.43;1.43;;;;;;;10.19;76.98;94611.09;5132475;27;20590;-56
2023/04/03 08:26:52;;;;;;;0.40;0.30;;;;;;;9.85;78.99;94518.56;5131625;27;20463;-56
2023/04/03 08:29:20;;;;;;;2.30;1.40;;;;;;;10.15;79.95;94607.44;5132390;27;20444;-56
2023/04/03 08:31:50;;;;;;;1.13;1.13;;;;;;;10.70;80.55;94593.44;5132011;27;20431;-56
2023/04/03 08:34:18;;;;;;;0.67;0.67;;;;;;;11.16;76.79;94598.84;5132195;27;20518;-56
2023/04/03 08:36:47;;;;;;;0.40;0.30;;;;;;;10.93;74.51;94591.78;5132149;27;20441;-57
2023/04/03 08:39:15;;;;;;;0.50;0.50;;;;;;;11.06;76.73;94592.91;5132226;27;20514;-57
2023/04/03 08:41:47;;;;;;;0.57;0.57;;;;;;;11.48;73.42;94590.88;5132617;27;20435;-57
2023/04/03 08:44:22;;;;;;;1.60;0.77;;;;;;;11.07;75.84;94584.69;5132183;27;20520;-57
2023/04/03 08:47:05;;;;;;;0.73;0.73;;;;;;;11.18;78.07;94583.44;5132251;27;20434;-57
2023/04/03 08:49:37;;;;;;;0.50;0.50;;;;;;;11.10;85.76;94572.72;5132061;27;20855;-57
2023/04/03 08:52:10;;;;;;;1.23;1.23;;;;;;;11.06;88.25;94553.94;5132198;27;20450;-57
2023/04/03 08:54:49;;;;;;;2.20;2.10;;;;;;;11.12;86.04;94554.66;5132495;28;20493;-57
2023/04/03 08:57:26;;;;;;;3.33;2.57;;;;;;;10.89;88.02;94560.84;5132153;28;20443;-57
2023/04/03 08:59:55;;;;;;;5.13;2.17;;;;;;;11.22;90.40;94575.69;5132010;28;20767;-57
2023/04/03 09:02:30;;;;;;;3.00;1.50;;;;;;;11.20;91.97;94586.59;5132038;28;20435;-57
2023/04/03 09:04:58;;;;;;;1.20;1.20;;;;;;;11.41;89.79;94585.16;5131877;28;20430;-57
2023/04/03 09:07:38;;;;;;;1.10;1.10;;;;;;;11.18;93.71;94533.03;5131979;27;20543;-57
2023/04/03 09:10:07;;;;;;;1.43;1.33;;;;;;;11.52;95.41;94569.06;5131953;28;20445;-57
2023/04/03 09:12:41;;;;;;;1.43;1.13;;;;;;;11.37;98.43;94568.28;5131793;28;20439;-57
2023/04/03 09:15:17;;;;;;;1.60;1.20;;;;;;;11.52;100.00;94569.06;5131695;27;20443;-58
2023/04/03 09:18:04;;;;;;;0.77;0.77;;;;;;;11.46;100.00;94571.81;5131892;28;20515;-58
2023/04/03 09:20:43;;;;;;;1.13;1.13;;;;;;;11.61;99.24;94576.09;5131536;27;20478;-58
2023/04/03 09:23:22;;;;;;;6.87;2.77;;;;;;;11.24;100.00;94598.19;5135039;27;20496;-58
2023/04/03 09:25:54;;;;;;;1.57;1.50;;;;;;;10.46;100.00;94600.69;5135849;27;20526;-57
2023/04/03 09:28:23;;;;;;;3.33;1.33;;;;;;;10.98;100.00;94580.34;5135607;27;20468;-58
2023/04/03 09:30:52;;;;;;;1.80;1.27;;;;;;;11.15;100.00;94592.00;5135920;27;20518;-57
2023/04/03 09:33:22;;;;;;;0.40;0.40;;;;;;;11.32;100.00;94600.19;5134732;27;20502;-58
2023/04/03 09:35:52;;;;;;;1.00;1.00;;;;;;;11.60;100.00;94602.91;5135474;27;20518;-59
2023/04/03 09:38:22;;;;;;;0.93;0.93;;;;;;;11.65;100.00;94602.81;5134919;27;20445;-58
2023/04/03 09:40:52;;;;;;;0.87;0.87;;;;;;;10.56;100.00;94611.16;5135677;27;20438;-58
2023/04/03 09:43:31;;;;;;;1.23;1.23;;;;;;;10.05;100.00;94612.81;5135236;27;20438;-58
2023/04/03 09:46:18;;;;;;;4.30;3.33;;;;;;;10.63;100.00;94616.09;5134916;27;20499;-58
2023/04/03 09:48:57;;;;;;;1.20;1.10;;;;;;;11.27;100.00;94605.56;5135581;27;20460;-58
2023/04/03 09:51:36;;;;;;;0.93;0.93;;;;;;;11.15;100.00;94570.78;5111393;27;20445;-58
2023/04/03 09:54:27;;;;;;;1.67;1.57;;;;;;;10.97;100.00;94611.34;5134892;27;21060;-57
2023/04/03 09:56:58;;;;;;;3.37;3.27;;;;;;;11.05;100.00;94621.31;5134887;27;20466;-57
2023/04/03 09:59:28;;;;;;;0.60;0.60;;;;;;;11.05;100.00;94623.19;5128630;27;20983;-58
2023/04/03 10:02:03;;;;;;;2.30;1.83;;;;;;;10.83;100.00;94621.88;5127937;27;20438;-57
2023/04/03 10:04:40;;;;;;;5.20;3.60;;;;;;;10.82;100.00;94619.53;5134710;27;20478;-56
2023/04/03 10:07:32;;;;;;;5.07;1.90;;;;;;;10.78;100.00;94618.53;5134571;27;20481;-57
2023/04/03 10:10:03;;;;;;;0.73;0.73;;;;;;;11.02;100.00;94624.53;5134641;27;20951;-56
2023/04/03 10:12:31;;;;;;;0.97;0.97;;;;;;;11.09;100.00;94627.63;5125482;27;20482;-57
2023/04/03 10:15:02;;;;;;;3.67;1.43;;;;;;;10.89;100.00;94619.97;5116908;27;20566;-57
2023/04/03 10:17:51;;;;;;;0.80;0.80;;;;;;;10.67;100.00;94627.69;5129558;27;20503;-56
2023/04/03 10:20:31;;;;;;;0.93;0.93;;;;;;;10.45;100.00;94619.53;5134074;27;20935;-56
2023/04/03 10:23:12;;;;;;;2.60;0.63;;;;;;;11.24;100.00;94623.94;5134680;27;20793;-56
2023/04/03 10:25:45;;;;;;;0.60;0.60;;;;;;;11.60;96.24;94616.97;5134490;27;21005;-56
2023/04/03 10:28:23;;;;;;;1.80;0.73;;;;;;;11.00;100.00;94616.09;5134947;27;20493;-55
2023/04/03 10:31:05;;;;;;;0.67;0.67;;;;;;;10.93;100.00;94610.34;5134333;27;20430;-57
2023/04/03 10:33:47;;;;;;;0.40;0.40;;;;;;;10.99;100.00;94598.59;5132362;27;20459;-57
2023/04/03 10:36:25;;;;;;;0.83;0.83;;;;;;;11.11;100.00;94609.53;5134354;27;20439;-56
2023/04/03 10:39:03;;;;;;;2.93;2.10;;;;;;;11.06;100.00;94625.53;5134376;27;20487;-57
2023/04/03 10:41:46;;;;;;;1.40;1.33;;;;;;;11.08;100.00;94598.75;5134092;27;20457;-57
2023/04/03 10:44:22;;;;;;;0.47;0.47;;;;;;;10.54;100.00;94464.13;5133815;27;20439;-56
2023/04/03 10:46:57;;;;;;;0.50;0.50;;;;;;;11.43;100.00;94593.63;5133948;27;20954;-55
2023/04/03 10:49:46;;;;;;;1.57;1.00;;;;;;;11.16;100.00;94582.16;5133588;27;20430;-56
2023/04/03 10:52:31;;;;;;;2.17;1.60;;;;;;;10.66;100.00;94565.97;5126328;27;20456;-55
2023/04/03 10:55:08;;;;;;;1.73;1.57;;;;;;;10.79;100.00;94559.16;5134090;27;20513;-55
2023/04/03 10:57:38;;;;;;;2.20;2.03;;;;;;;10.81;100.00;94580.84;5134042;27;20439;-56
2023/04/03 11:00:16;;;;;;;3.90;2.60;;;;;;;11.15;100.00;94569.97;5132504;27;20443;-56
2023/04/03 11:02:52;;;;;;;0.97;0.97;;;;;;;11.19;100.00;94582.38;5133574;27;20645;-55
2023/04/03 11:05:32;;;;;;;4.53;4.10;;;;;;;10.80;100.00;94576.63;5134225;27;20529;-55
2023/04/03 11:08:08;;;;;;;1.23;1.23;;;;;;;10.35;100.00;94509.19;5133580;27;20435;-55
2023/04/03 11:10:42;;;;;;;4.13;2.80;;;;;;;10.65;100.00;94532.56;5133006;27;20474;-56
2023/04/03 11:13:15;;;;;;;4.67;1.17;;;;;;;10.85;100.00;94564.06;5133860;27;20446;-56
2023/04/03 11:15:45;;;;;;;0.77;0.77;;;;;;;11.22;100.00;94555.28;5133638;27;20562;-56
2023/04/03 11:18:20;;;;;;;2.40;2.30;;;;;;;11.04;100.00;94545.50;5134101;27;20901;-56
2023/04/03 11:20:58;;;;;;;1.93;1.87;;;;;;;11.35;100.00;94545.75;5133286;27;20434;-56
2023/04/03 11:23:30;;;;;;;3.50;1.53;;;;;;;11.67;100.00;94531.63;5133489;27;20583;-56
2023/04/03 11:26:18;;;;;;;2.33;2.10;;;;;;;11.72;100.00;94527.06;5112481;27;20447;-57
2023/04/03 11:28:47;;;;;;;1.43;1.33;;;;;;;11.86;100.00;94521.75;5133143;27;20435;-56
2023/04/03 11:31:37;;;;;;;0.67;0.67;;;;;;;11.82;100.00;94515.44;5132692;27;20534;-57
2023/04/03 11:34:28;;;;;;;1.10;1.10;;;;;;;11.70;100.00;94459.41;5133292;27;20481;-56
2023/04/03 11:37:00;;;;;;;0.60;0.60;;;;;;;12.02;100.00;94494.56;5133027;27;20870;-56
2023/04/03 11:39:31;;;;;;;6.13;1.47;;;;;;;11.44;100.00;94488.28;5133264;27;20435;-57
2023/04/03 11:42:16;;;;;;;2.03;1.93;;;;;;;10.51;100.00;94462.06;5133134;27;20442;-57
2023/04/03 11:44:44;;;;;;;0.97;0.70;;;;;;;10.80;100.00;94473.25;5132270;27;20738;-56
2023/04/03 11:47:33;;;;;;;0.40;0.30;;;;;;;10.89;100.00;94458.25;5133264;27;20474;-56
2023/04/03 11:50:06;;;;;;;0.97;0.80;;;;;;;11.24;100.00;94451.53;5132435;27;20467;-56
2023/04/03 11:52:57;;;;;;;2.60;2.50;;;;;;;10.79;100.00;94453.91;5133392;27;20470;-56